Time;durP1;ratioP1;P1;durP2;ratioP2;P2;SDS_P1;SDS_P2;PMS_P1;PMS_P2;Temp;Humidity;BMP_temperature;BMP_pressure;BME280_temperature;BME280_humidity;BME280_pressure;Samples;Min_cycle;Max_cycle;Signal;HPM_P1;HPM_P2
2023/08/22 00:00:13;;;;;;;11.32;8.13;;;;;;;25.04;51.28;99448.44;5012933;28;20397;-82
2023/08/22 00:02:39;;;;;;;9.98;7.78;;;;;;;24.71;52.15;99448.94;5010332;28;20488;-82
2023/08/22 00:05:05;;;;;;;12.63;7.85;;;;;;;24.65;52.51;99450.69;5028276;28;20574;-81
2023/08/22 00:07:31;;;;;;;9.30;7.90;;;;;;;24.37;52.79;99458.44;5028083;28;20057;-81
2023/08/22 00:09:56;;;;;;;10.57;9.02;;;;;;;24.10;53.44;99462.91;5016599;28;20109;-81
2023/08/22 00:12:22;;;;;;;11.05;7.90;;;;;;;24.18;53.44;99466.47;5015342;28;20420;-81
2023/08/22 00:14:48;;;;;;;11.88;8.10;;;;;;;24.16;53.46;99456.72;5015490;28;20034;-82
2023/08/22 00:17:13;;;;;;;14.60;7.85;;;;;;;24.12;53.10;99462.47;5015221;28;20033;-81
2023/08/22 00:19:39;;;;;;;16.25;8.73;;;;;;;24.11;53.11;99469.41;5032117;28;20037;-82
2023/08/22 00:22:05;;;;;;;13.48;8.55;;;;;;;23.87;53.76;99459.91;5015409;28;20190;-81
2023/08/22 00:24:32;;;;;;;9.82;7.82;;;;;;;23.91;53.73;99454.97;5015458;28;20029;-82
2023/08/22 00:26:58;;;;;;;11.35;8.77;;;;;;;23.67;53.65;99451.97;5003810;28;20406;-82
2023/08/22 00:29:24;;;;;;;10.30;7.50;;;;;;;23.67;53.88;99452.81;5032874;28;20091;-82
2023/08/22 00:31:50;;;;;;;12.05;7.80;;;;;;;23.74;53.84;99463.31;5032856;28;20492;-82
2023/08/22 00:34:15;;;;;;;15.70;8.00;;;;;;;23.89;53.07;99457.44;5014796;28;20037;-81
2023/08/22 00:36:41;;;;;;;12.85;8.32;;;;;;;23.84;53.14;99464.44;5015064;28;20393;-81
2023/08/22 00:39:07;;;;;;;15.98;8.13;;;;;;;23.36;54.06;99449.88;5014943;28;20033;-82
2023/08/22 00:41:33;;;;;;;14.48;8.63;;;;;;;23.44;54.17;99447.75;5013877;28;20107;-81
2023/08/22 00:43:58;;;;;;;17.52;9.50;;;;;;;23.37;54.42;99448.63;5030349;28;20041;-81
2023/08/22 00:46:27;;;;;;;14.65;8.90;;;;;;;23.25;54.36;99432.84;5014039;28;20566;-81
2023/08/22 00:48:52;;;;;;;16.13;9.00;;;;;;;23.26;54.41;99450.75;5015024;28;20098;-81
2023/08/22 00:51:19;;;;;;;15.55;9.07;;;;;;;23.19;55.02;99448.00;5014945;28;20026;-80
2023/08/22 00:53:45;;;;;;;13.48;8.38;;;;;;;23.28;55.05;99451.16;5014879;28;20128;-81
2023/08/22 00:56:11;;;;;;;15.93;10.02;;;;;;;23.24;55.72;99458.94;5014087;28;20507;-82
2023/08/22 00:58:37;;;;;;;19.52;9.57;;;;;;;23.23;55.97;99458.13;5014364;28;20026;-81
2023/08/22 01:01:03;;;;;;;17.50;9.77;;;;;;;23.20;56.22;99466.72;5010315;28;20041;-81
2023/08/22 01:03:28;;;;;;;13.80;9.52;;;;;;;23.04;56.79;99456.66;5014447;28;20095;-81
2023/08/22 01:06:06;;;;;;;10.07;8.90;;;;;;;23.09;56.75;99459.06;5032226;28;20026;-81
2023/08/22 01:08:34;;;;;;;15.75;9.32;;;;;;;23.08;56.88;99463.16;5014327;28;20033;-81
2023/08/22 01:11:15;;;;;;;14.13;9.05;;;;;;;23.11;56.78;99459.47;5013459;28;20440;-82
2023/08/22 01:13:42;;;;;;;12.75;9.48;;;;;;;22.93;57.53;99459.63;5014335;28;20108;-81
2023/08/22 01:16:08;;;;;;;14.43;8.88;;;;;;;22.84;57.51;99457.25;5014426;28;20033;-80
2023/08/22 01:18:34;;;;;;;11.98;9.55;;;;;;;22.81;57.95;99465.81;5013046;28;20515;-80
2023/08/22 01:21:06;;;;;;;12.68;8.50;;;;;;;22.76;57.92;99463.44;5030214;28;20025;-81
2023/08/22 01:23:32;;;;;;;10.35;8.48;;;;;;;22.63;58.36;99469.63;5014068;28;20079;-81
2023/08/22 01:25:58;;;;;;;26.58;10.10;;;;;;;22.70;58.06;99472.41;5013345;28;20458;-81
2023/08/22 01:28:31;;;;;;;13.23;9.30;;;;;;;22.83;57.68;99467.03;5013916;28;20044;-81
2023/08/22 01:31:25;;;;;;;12.50;8.88;;;;;;;22.82;57.97;99468.28;5013945;28;20056;-81
2023/08/22 01:33:56;;;;;;;14.68;9.27;;;;;;;22.63;58.21;99472.47;5014108;28;20167;-81
2023/08/22 01:36:25;;;;;;;11.13;8.52;;;;;;;22.57;58.65;99471.28;5012028;28;20500;-81
2023/08/22 01:38:53;;;;;;;9.80;7.88;;;;;;;22.69;58.30;99490.75;5013820;28;20080;-80
2023/08/22 01:41:20;;;;;;;12.82;9.30;;;;;;;22.75;58.36;99476.88;5011986;28;20504;-81
2023/08/22 01:43:46;;;;;;;13.30;9.55;;;;;;;22.65;58.63;99474.91;5012085;28;20052;-81
2023/08/22 01:46:12;;;;;;;12.80;8.98;;;;;;;22.57;58.75;99474.13;5013157;28;20025;-81
2023/08/22 01:48:37;;;;;;;12.30;8.88;;;;;;;22.60;58.86;99478.19;5031181;28;20068;-81
2023/08/22 01:51:03;;;;;;;19.17;10.40;;;;;;;22.51;59.61;99475.81;5013846;28;20060;-81
2023/08/22 01:53:29;;;;;;;10.38;9.20;;;;;;;22.68;59.09;99489.13;5009038;28;20037;-81
2023/08/22 01:56:01;;;;;;;14.93;10.45;;;;;;;22.76;59.37;99492.75;5024196;28;20056;-81
2023/08/22 01:58:27;;;;;;;13.13;10.43;;;;;;;22.80;59.39;99487.81;5013360;28;20420;-81
2023/08/22 02:00:52;;;;;;;12.32;10.18;;;;;;;22.76;59.60;99481.34;5013644;28;20025;-81
2023/08/22 02:03:20;;;;;;;11.45;9.68;;;;;;;22.59;60.22;99474.53;5031354;28;20389;-81
2023/08/22 02:05:46;;;;;;;14.77;10.43;;;;;;;22.41;60.54;99472.59;5013713;28;20029;-81
2023/08/22 02:08:11;;;;;;;11.93;8.80;;;;;;;22.56;60.42;99479.03;5030942;28;20045;-81
2023/08/22 02:10:36;;;;;;;16.80;9.25;;;;;;;22.61;60.24;99471.28;5009447;28;20035;-82
2023/08/22 02:13:02;;;;;;;15.00;10.13;;;;;;;22.62;60.18;99475.75;5030084;28;20508;-81
2023/08/22 02:15:27;;;;;;;15.02;9.55;;;;;;;22.62;60.18;99470.03;5010169;28;20061;-81
2023/08/22 02:17:53;;;;;;;15.77;9.98;;;;;;;22.56;59.91;99475.38;5009166;28;20030;-81
2023/08/22 02:20:22;;;;;;;12.50;9.70;;;;;;;22.63;59.73;99469.63;5013503;28;20488;-81
2023/08/22 02:22:47;;;;;;;14.85;9.52;;;;;;;22.98;58.80;99475.47;5013381;28;20160;-81
2023/08/22 02:25:13;;;;;;;9.82;8.70;;;;;;;23.18;57.83;99469.19;5014787;28;20056;-81
2023/08/22 02:27:38;;;;;;;14.65;9.50;;;;;;;23.06;57.75;99471.34;5030405;28;20030;-82
2023/08/22 02:30:06;;;;;;;11.55;9.32;;;;;;;22.90;58.10;99474.72;5017229;28;20130;-81
2023/08/22 02:32:32;;;;;;;14.13;10.20;;;;;;;22.98;57.92;99475.47;5035175;28;20033;-81
2023/08/22 02:34:57;;;;;;;13.27;10.00;;;;;;;22.92;58.20;99469.41;5017326;28;20040;-81
2023/08/22 02:37:23;;;;;;;12.25;9.60;;;;;;;22.84;58.31;99480.06;5017172;28;20053;-81
2023/08/22 02:39:48;;;;;;;16.80;10.10;;;;;;;22.77;57.98;99473.59;5017199;28;20037;-81
2023/08/22 02:42:14;;;;;;;12.98;9.45;;;;;;;22.78;58.10;99467.47;5014149;28;20107;-81
2023/08/22 02:44:39;;;;;;;16.38;9.95;;;;;;;22.77;58.05;99460.16;5021278;28;20076;-81
2023/08/22 02:47:05;;;;;;;23.38;9.82;;;;;;;22.78;58.54;99475.22;5020904;28;20087;-81
2023/08/22 02:49:30;;;;;;;15.85;10.27;;;;;;;22.74;58.49;99475.25;5016819;28;20025;-81
2023/08/22 02:51:56;;;;;;;16.33;9.88;;;;;;;22.75;58.98;99474.00;5016851;28;20029;-81
2023/08/22 02:54:21;;;;;;;18.58;9.27;;;;;;;22.82;58.46;99468.28;5017060;28;20049;-81
2023/08/22 02:56:47;;;;;;;12.75;8.85;;;;;;;22.88;58.17;99456.41;5015866;28;20044;-80
2023/08/22 02:59:12;;;;;;;15.05;9.10;;;;;;;23.31;57.53;99486.59;5033456;28;20032;-81
2023/08/22 03:01:38;;;;;;;16.65;9.30;;;;;;;23.21;57.29;99462.63;5023661;28;20021;-81
2023/08/22 03:04:04;;;;;;;22.85;9.90;;;;;;;23.14;58.06;99489.97;5034657;28;20408;-81
2023/08/22 03:06:30;;;;;;;20.88;10.10;;;;;;;22.86;58.83;99486.16;5028899;28;20018;-80
2023/08/22 03:08:55;;;;;;;20.42;9.60;;;;;;;22.79;59.39;99485.41;5022084;28;20041;-81
2023/08/22 03:11:21;;;;;;;18.33;9.35;;;;;;;22.69;59.57;99496.44;5013382;28;20029;-81
2023/08/22 03:13:47;;;;;;;11.05;9.02;;;;;;;22.39;59.99;99482.78;5021927;28;20104;-81
2023/08/22 03:16:13;;;;;;;19.27;12.48;;;;;;;22.28;60.03;99489.34;5016284;28;20076;-81
2023/08/22 03:18:38;;;;;;;24.08;10.75;;;;;;;22.35;59.92;99491.34;5013805;28;20460;-81
2023/08/22 03:21:04;;;;;;;10.50;9.45;;;;;;;22.24;60.07;99491.41;5016543;28;20479;-81
2023/08/22 03:23:29;;;;;;;12.48;9.23;;;;;;;22.12;60.39;99484.13;5034468;28;20059;-82
2023/08/22 03:25:59;;;;;;;24.08;10.27;;;;;;;22.05;61.03;99491.88;5015472;28;20053;-81
2023/08/22 03:28:25;;;;;;;19.75;10.50;;;;;;;21.98;61.13;99473.63;5002530;28;20030;-81
2023/08/22 03:30:55;;;;;;;25.05;10.73;;;;;;;22.23;60.63;99492.63;5013078;28;20115;-82
2023/08/22 03:33:21;;;;;;;29.67;11.60;;;;;;;22.36;59.93;99497.84;4996714;28;20026;-81
2023/08/22 03:35:46;;;;;;;27.75;11.60;;;;;;;22.35;59.55;99497.03;5011587;28;20052;-81
2023/08/22 03:38:12;;;;;;;19.48;10.02;;;;;;;22.32;59.26;99497.03;5009561;28;20508;-81
2023/08/22 03:40:37;;;;;;;24.15;10.38;;;;;;;22.40;58.98;99502.31;5011085;28;20033;-80
2023/08/22 03:43:03;;;;;;;20.58;11.07;;;;;;;22.48;59.08;99497.41;5008015;28;20060;-82
2023/08/22 03:45:28;;;;;;;27.23;13.15;;;;;;;22.48;58.69;99505.09;4992591;28;20389;-82
2023/08/22 03:47:54;;;;;;;32.38;10.48;;;;;;;22.49;59.13;99504.72;5013654;28;20088;-82
2023/08/22 03:50:19;;;;;;;27.65;11.93;;;;;;;22.49;59.31;99499.03;4996109;28;20461;-81
2023/08/22 03:52:45;;;;;;;37.10;11.95;;;;;;;22.43;59.91;99506.34;4996308;28;20052;-81
2023/08/22 03:55:10;;;;;;;28.30;14.02;;;;;;;22.46;60.31;99507.56;4996162;28;20034;-82
2023/08/22 03:57:35;;;;;;;23.52;12.00;;;;;;;22.36;60.78;99506.41;5017779;28;20030;-82
2023/08/22 04:00:03;;;;;;;31.80;10.57;;;;;;;22.27;61.13;99510.50;4990926;28;20026;-82
2023/08/22 04:02:28;;;;;;;21.73;13.32;;;;;;;22.44;60.47;99505.13;5008284;28;20037;-82
2023/08/22 04:04:55;;;;;;;31.85;13.98;;;;;;;22.66;60.05;99508.69;4994575;28;20509;-82
2023/08/22 04:07:21;;;;;;;61.67;33.17;;;;;;;22.95;58.69;99511.31;4998322;28;20030;-81
2023/08/22 04:09:46;;;;;;;54.15;32.03;;;;;;;23.03;58.28;99516.97;5013437;28;20037;-82
2023/08/22 04:12:12;;;;;;;68.57;41.95;;;;;;;23.07;57.39;99510.03;4999343;28;20021;-83
2023/08/22 04:14:37;;;;;;;29.33;16.83;;;;;;;22.95;58.06;99511.31;4995852;28;20453;-83
2023/08/22 04:17:03;;;;;;;27.08;16.48;;;;;;;23.11;57.76;99518.56;4992045;28;20034;-83
2023/08/22 04:19:28;;;;;;;24.67;13.88;;;;;;;23.25;57.40;99517.59;4994327;28;20110;-83
2023/08/22 04:21:54;;;;;;;26.05;10.32;;;;;;;23.31;57.85;99521.66;4995814;28;20034;-83
2023/08/22 04:24:19;;;;;;;19.35;11.85;;;;;;;23.46;57.58;99515.81;4995717;28;20412;-83
2023/08/22 04:26:44;;;;;;;12.75;10.90;;;;;;;23.47;57.47;99511.72;4996861;28;20025;-83
2023/08/22 04:29:10;;;;;;;15.88;10.13;;;;;;;23.57;57.23;99527.94;4995599;28;20079;-83
2023/08/22 04:31:36;;;;;;;15.77;9.77;;;;;;;23.57;57.11;99522.22;4991921;28;20061;-83
2023/08/22 04:34:02;;;;;;;17.25;11.30;;;;;;;23.58;57.25;99520.19;4995209;28;20041;-83
2023/08/22 04:36:28;;;;;;;18.38;10.52;;;;;;;23.47;57.27;99531.72;4998601;28;20034;-83
2023/08/22 04:38:53;;;;;;;18.95;11.02;;;;;;;23.45;57.64;99529.25;5004651;28;20408;-83
2023/08/22 04:41:18;;;;;;;17.00;9.88;;;;;;;23.49;57.36;99520.69;4998681;28;20049;-84
2023/08/22 04:43:44;;;;;;;20.50;10.32;;;;;;;23.37;57.83;99536.28;5010459;28;20029;-83
2023/08/22 04:46:09;;;;;;;18.48;11.35;;;;;;;23.60;57.14;99537.72;5009336;28;20033;-83
2023/08/22 04:48:35;;;;;;;26.23;10.00;;;;;;;23.39;57.56;99534.63;5010782;28;20038;-84
2023/08/22 04:51:00;;;;;;;29.17;10.35;;;;;;;23.54;57.62;99540.22;5008072;28;20037;-84
2023/08/22 04:53:26;;;;;;;25.00;10.25;;;;;;;23.53;57.45;99545.09;5013265;28;20060;-83
2023/08/22 04:55:51;;;;;;;12.55;10.13;;;;;;;23.38;57.98;99535.06;5013618;28;20087;-83
2023/08/22 04:58:17;;;;;;;14.68;10.07;;;;;;;23.60;57.92;99532.78;5008607;28;20029;-83
2023/08/22 05:00:42;;;;;;;22.90;11.00;;;;;;;23.66;57.36;99536.00;5016743;28;20044;-83
2023/08/22 05:03:08;;;;;;;23.98;11.18;;;;;;;23.71;57.89;99532.69;5031393;28;20458;-83
2023/08/22 05:05:33;;;;;;;19.50;12.38;;;;;;;23.84;57.45;99541.53;5014028;28;20029;-83
2023/08/22 05:08:00;;;;;;;37.92;12.57;;;;;;;23.95;57.03;99542.22;5014233;28;20030;-84
2023/08/22 05:10:25;;;;;;;26.95;15.10;;;;;;;24.26;56.21;99541.47;5013873;28;20029;-83
2023/08/22 05:12:51;;;;;;;23.80;13.70;;;;;;;24.50;55.65;99547.28;5007403;28;20026;-83
2023/08/22 05:15:17;;;;;;;27.70;11.93;;;;;;;24.50;55.88;99545.25;5009566;28;20080;-85
2023/08/22 05:17:42;;;;;;;25.58;12.23;;;;;;;24.48;55.61;99542.00;5001453;28;20029;-85
2023/08/22 05:20:10;;;;;;;29.92;11.82;;;;;;;24.45;56.13;99545.72;5012220;28;20025;-84
2023/08/22 05:22:35;;;;;;;24.63;10.90;;;;;;;24.27;55.74;99539.44;5008868;28;20479;-84
2023/08/22 05:25:04;;;;;;;14.35;9.25;;;;;;;24.24;55.64;99543.94;5013203;28;20029;-84
2023/08/22 05:27:29;;;;;;;33.55;11.60;;;;;;;24.26;55.30;99550.03;5014197;28;20031;-84
2023/08/22 05:29:54;;;;;;;22.30;10.25;;;;;;;24.34;54.56;99550.75;5030325;28;20033;-83
2023/08/22 05:32:20;;;;;;;18.20;10.23;;;;;;;24.39;54.65;99556.81;5029552;28;20037;-83
2023/08/22 05:34:45;;;;;;;25.40;11.52;;;;;;;24.48;54.03;99556.28;5012862;28;20093;-83
2023/08/22 05:37:11;;;;;;;17.30;9.65;;;;;;;24.58;53.15;99554.53;5006944;28;20029;-83
2023/08/22 05:39:37;;;;;;;14.40;8.48;;;;;;;24.58;52.81;99530.84;5014813;28;20022;-83
2023/08/22 05:42:03;;;;;;;22.40;9.95;;;;;;;24.93;52.24;99560.19;5009271;28;20133;-84
2023/08/22 05:44:31;;;;;;;12.50;9.23;;;;;;;24.93;51.65;99548.75;5025570;28;20101;-83
2023/08/22 05:46:57;;;;;;;33.85;9.27;;;;;;;24.91;51.73;99542.66;5012481;28;20036;-82
2023/08/22 05:49:22;;;;;;;41.90;10.55;;;;;;;25.03;52.21;99544.09;5013093;28;20144;-83
2023/08/22 05:51:48;;;;;;;20.27;9.45;;;;;;;25.08;51.12;99541.53;5027590;28;20029;-82
2023/08/22 05:54:13;;;;;;;22.33;9.55;;;;;;;25.21;51.04;99540.94;4998169;28;20026;-84
2023/08/22 05:56:39;;;;;;;17.92;9.82;;;;;;;25.41;49.64;99548.78;5012054;28;20021;-84
2023/08/22 05:59:04;;;;;;;14.25;9.38;;;;;;;25.60;49.45;99548.06;5032457;28;20029;-83
2023/08/22 06:01:30;;;;;;;36.72;8.48;;;;;;;25.67;47.51;99550.00;5017368;28;20025;-83
2023/08/22 06:03:55;;;;;;;22.77;9.60;;;;;;;25.81;47.97;99551.75;5035010;28;20072;-83
2023/08/22 06:06:20;;;;;;;21.63;9.05;;;;;;;25.75;47.69;99551.47;5009698;28;20025;-85
2023/08/22 06:08:46;;;;;;;15.10;9.15;;;;;;;25.85;47.06;99551.69;5007606;28;20045;-85
2023/08/22 06:11:11;;;;;;;18.50;9.50;;;;;;;25.98;47.18;99552.66;5010952;28;20030;-84
2023/08/22 06:13:37;;;;;;;17.60;8.80;;;;;;;26.17;46.22;99545.31;5032757;28;20026;-83
2023/08/22 06:16:02;;;;;;;15.15;8.52;;;;;;;26.34;46.16;99536.84;5007188;28;20029;-84
2023/08/22 06:18:28;;;;;;;13.52;8.85;;;;;;;26.43;45.64;99550.56;5012086;28;20025;-83
2023/08/22 06:21:01;;;;;;;26.25;8.98;;;;;;;26.72;46.14;99532.72;5013496;28;20048;-83
2023/08/22 06:23:26;;;;;;;18.58;10.70;;;;;;;27.04;44.95;99548.38;5006362;28;20037;-82
2023/08/22 06:25:52;;;;;;;16.17;7.68;;;;;;;27.05;43.78;99545.09;5008985;28;20022;-84
2023/08/22 06:28:17;;;;;;;16.73;9.75;;;;;;;27.15;44.00;99548.13;5013181;28;20018;-83
2023/08/22 06:30:43;;;;;;;12.50;7.50;;;;;;;27.15;43.28;99530.88;5010819;28;20048;-83
2023/08/22 06:33:08;;;;;;;22.67;9.75;;;;;;;27.25;43.74;99538.44;5007053;28;20026;-83
2023/08/22 06:35:34;;;;;;;13.05;7.85;;;;;;;27.47;43.67;99535.00;4990271;28;20033;-83
2023/08/22 06:37:59;;;;;;;16.05;7.85;;;;;;;27.78;42.33;99543.25;5022600;28;20500;-84
2023/08/22 06:40:25;;;;;;;16.23;9.85;;;;;;;28.07;43.38;99553.16;5024337;28;20052;-83
2023/08/22 06:42:50;;;;;;;14.55;7.40;;;;;;;28.29;42.39;99548.38;5012530;28;20117;-83
2023/08/22 06:45:16;;;;;;;11.57;7.45;;;;;;;28.19;41.10;99525.72;5009574;28;20088;-83
2023/08/22 06:47:41;;;;;;;22.70;8.68;;;;;;;28.22;41.13;99537.13;5011349;28;20030;-83
2023/08/22 06:50:07;;;;;;;14.60;8.45;;;;;;;28.46;41.00;99539.69;5009011;28;20030;-83
2023/08/22 06:52:33;;;;;;;14.27;7.00;;;;;;;28.44;40.87;99536.47;5028429;28;20029;-83
2023/08/22 06:54:58;;;;;;;14.25;7.57;;;;;;;28.53;41.00;99538.66;5002622;28;20029;-84
2023/08/22 06:57:24;;;;;;;19.55;7.63;;;;;;;28.69;40.45;99541.44;5004998;28;20025;-82
2023/08/22 06:59:50;;;;;;;13.27;7.28;;;;;;;28.80;39.33;99535.38;5007853;28;20026;-83
2023/08/22 07:02:15;;;;;;;20.27;9.63;;;;;;;29.14;39.87;99545.41;5021850;28;20057;-83
2023/08/22 07:04:40;;;;;;;20.65;8.85;;;;;;;29.29;39.44;99536.28;5027561;28;20025;-83
2023/08/22 07:07:06;;;;;;;22.00;8.65;;;;;;;29.42;38.85;99545.69;5010109;28;20028;-83
2023/08/22 07:09:31;;;;;;;17.63;8.93;;;;;;;29.56;39.15;99541.56;5007307;28;20535;-83
2023/08/22 07:11:57;;;;;;;20.65;10.38;;;;;;;29.56;39.34;99540.72;5003662;28;20033;-83
2023/08/22 07:14:22;;;;;;;14.45;8.13;;;;;;;29.67;38.81;99531.69;5025628;28;20038;-83
2023/08/22 07:16:48;;;;;;;12.77;8.20;;;;;;;29.68;38.24;99533.31;5005849;28;20543;-84
2023/08/22 07:19:15;;;;;;;11.35;7.53;;;;;;;29.74;38.21;99536.41;5001480;28;20030;-85
2023/08/22 07:21:40;;;;;;;11.52;8.02;;;;;;;29.69;38.43;99537.81;5000879;28;20037;-84
2023/08/22 07:24:06;;;;;;;11.68;7.13;;;;;;;29.74;37.75;99531.44;5012546;28;20110;-85
2023/08/22 07:26:31;;;;;;;13.75;8.25;;;;;;;29.87;37.87;99540.06;5030736;28;20456;-86
2023/08/22 07:28:57;;;;;;;9.10;7.95;;;;;;;29.90;37.91;99533.34;5005139;28;20033;-85
2023/08/22 07:31:23;;;;;;;17.63;7.90;;;;;;;30.03;36.84;99530.41;5012440;28;20036;-85
2023/08/22 07:33:48;;;;;;;11.77;8.15;;;;;;;30.08;36.49;99518.31;5001022;28;20030;-85
2023/08/22 07:36:21;;;;;;;12.15;7.63;;;;;;;30.38;35.98;99526.66;5014163;28;20025;-83
2023/08/22 07:38:47;;;;;;;9.00;8.07;;;;;;;30.22;36.38;99527.69;5020957;28;20025;-84
2023/08/22 07:41:12;;;;;;;14.98;8.77;;;;;;;30.42;35.92;99515.00;5007476;28;20559;-85
2023/08/22 07:43:38;;;;;;;14.52;7.65;;;;;;;30.46;35.23;99512.75;5032607;28;20036;-84
2023/08/22 07:46:03;;;;;;;14.13;8.13;;;;;;;30.65;35.65;99520.28;5014051;28;20025;-83
2023/08/22 07:48:29;;;;;;;11.48;8.20;;;;;;;31.03;34.14;99531.97;5016943;28;20037;-84
2023/08/22 07:50:55;;;;;;;11.13;7.65;;;;;;;31.00;33.52;99533.72;5008148;28;20200;-84
2023/08/22 07:53:21;;;;;;;9.75;7.28;;;;;;;31.07;32.73;99519.00;5007396;28;20049;-84
2023/08/22 07:55:47;;;;;;;8.23;6.88;;;;;;;31.19;31.67;99531.69;5026501;28;20500;-84
2023/08/22 07:58:14;;;;;;;14.98;7.80;;;;;;;31.24;32.60;99522.41;5012365;28;20052;-83
2023/08/22 08:00:39;;;;;;;10.00;7.00;;;;;;;31.60;31.58;99525.84;5008168;28;20032;-85
2023/08/22 08:03:05;;;;;;;16.02;9.13;;;;;;;32.01;31.18;99525.72;5033351;28;20029;-86
2023/08/22 08:05:32;;;;;;;8.75;7.75;;;;;;;32.21;30.97;99521.50;5015730;28;20029;-85
2023/08/22 08:07:57;;;;;;;13.10;7.88;;;;;;;32.53;30.94;99518.44;5013492;28;20022;-86
2023/08/22 08:10:23;;;;;;;9.35;6.35;;;;;;;32.26;29.78;99515.09;5012697;28;20106;-83
2023/08/22 08:12:48;;;;;;;27.70;8.07;;;;;;;32.56;30.48;99515.34;5030538;28;20040;-83
2023/08/22 08:15:14;;;;;;;19.27;7.38;;;;;;;32.59;29.81;99523.06;5010704;28;20026;-84
2023/08/22 08:17:40;;;;;;;20.48;7.10;;;;;;;32.62;29.45;99509.69;5009178;28;20026;-82
2023/08/22 08:20:06;;;;;;;12.98;6.25;;;;;;;32.75;28.81;99512.41;5028182;28;20455;-82
2023/08/22 08:22:31;;;;;;;11.45;6.68;;;;;;;33.08;29.62;99511.63;5029212;28;20033;-83
2023/08/22 08:24:57;;;;;;;8.40;6.20;;;;;;;32.66;28.80;99516.13;5006783;28;20393;-83
2023/08/22 08:27:22;;;;;;;17.08;7.47;;;;;;;33.11;31.14;99515.63;5010696;28;20028;-83
2023/08/22 08:29:48;;;;;;;16.58;7.07;;;;;;;33.07;29.76;99492.66;5019712;28;20033;-84
2023/08/22 08:32:13;;;;;;;11.15;7.07;;;;;;;33.37;29.67;99513.06;5008739;28;20030;-84
2023/08/22 08:34:39;;;;;;;12.85;6.20;;;;;;;33.14;28.25;99503.84;5007792;28;20025;-83
2023/08/22 08:37:04;;;;;;;11.05;6.30;;;;;;;33.40;27.86;99505.47;5014175;28;20503;-83
2023/08/22 08:39:30;;;;;;;9.50;5.63;;;;;;;33.23;28.23;99510.91;5031801;28;20099;-84
2023/08/22 08:42:05;;;;;;;15.02;6.25;;;;;;;33.63;27.61;99518.38;5009478;28;20057;-84
2023/08/22 08:44:34;;;;;;;6.82;6.15;;;;;;;33.86;29.30;99501.44;5029500;28;20026;-84
2023/08/22 08:47:00;;;;;;;13.03;6.20;;;;;;;34.15;29.55;99515.19;5012108;28;20029;-84
2023/08/22 08:49:25;;;;;;;11.43;6.20;;;;;;;34.26;28.29;99519.63;5011666;28;20091;-84
2023/08/22 08:51:52;;;;;;;7.88;6.05;;;;;;;34.28;28.50;99526.53;5011689;28;20058;-84
2023/08/22 08:54:21;;;;;;;8.85;5.80;;;;;;;34.16;27.33;99521.81;5026966;28;20026;-84
2023/08/22 08:56:46;;;;;;;16.98;7.70;;;;;;;34.46;28.10;99518.13;5004327;28;20021;-84
2023/08/22 08:59:12;;;;;;;8.27;6.47;;;;;;;34.52;27.22;99516.13;5012341;28;20026;-84
2023/08/22 09:01:41;;;;;;;6.97;5.70;;;;;;;34.61;27.29;99516.03;5011389;28;20021;-84
2023/08/22 09:04:07;;;;;;;6.57;5.88;;;;;;;34.78;27.80;99519.22;5011263;28;20393;-84
2023/08/22 09:06:33;;;;;;;10.35;5.13;;;;;;;34.82;27.67;99501.59;5026174;28;20032;-84
2023/08/22 09:09:09;;;;;;;8.45;5.57;;;;;;;34.90;27.38;99484.53;5011740;28;20403;-84
2023/08/22 09:11:35;;;;;;;10.23;6.03;;;;;;;35.17;27.49;99509.50;5025935;28;20476;-84
2023/08/22 09:14:01;;;;;;;12.73;5.32;;;;;;;35.27;26.48;99507.28;5010030;28;20034;-84
2023/08/22 09:16:28;;;;;;;6.60;5.55;;;;;;;35.35;27.06;99507.66;5012141;28;20033;-84
2023/08/22 09:19:00;;;;;;;14.57;6.80;;;;;;;34.68;26.63;99498.19;5029434;28;20029;-83
2023/08/22 09:21:26;;;;;;;9.15;5.55;;;;;;;35.23;27.85;99507.50;5005342;28;20488;-84
2023/08/22 09:23:52;;;;;;;8.50;5.85;;;;;;;35.53;26.92;99483.31;5005274;28;20029;-85
2023/08/22 09:26:22;;;;;;;11.00;6.18;;;;;;;35.52;26.56;99493.34;5003898;28;20122;-84
2023/08/22 09:28:48;;;;;;;11.98;5.80;;;;;;;35.76;26.98;99483.59;5011419;28;20024;-85
2023/08/22 09:31:24;;;;;;;6.78;5.20;;;;;;;35.88;25.98;99482.41;4991012;28;20041;-84
2023/08/22 09:33:50;;;;;;;8.13;5.40;;;;;;;35.81;26.68;99477.03;5005462;28;20431;-85
2023/08/22 09:36:20;;;;;;;11.73;5.22;;;;;;;35.86;26.29;99481.31;5008538;28;20064;-84
2023/08/22 09:38:54;;;;;;;18.52;6.22;;;;;;;36.08;26.27;99477.88;4997166;28;20107;-83
2023/08/22 09:41:24;;;;;;;7.93;5.25;;;;;;;36.09;26.66;99467.84;5024416;28;20049;-85
2023/08/22 09:43:58;;;;;;;9.63;5.32;;;;;;;36.07;25.84;99480.00;5028017;28;20033;-85
2023/08/22 09:46:24;;;;;;;8.52;4.97;;;;;;;36.14;25.60;99470.00;5006891;28;20021;-84
2023/08/22 09:48:51;;;;;;;15.88;6.30;;;;;;;36.19;26.24;99462.66;5007740;28;20021;-84
2023/08/22 09:51:20;;;;;;;9.77;5.00;;;;;;;36.33;26.05;99463.84;5009379;28;20627;-84
2023/08/22 09:53:59;;;;;;;6.65;5.18;;;;;;;36.28;25.78;99467.47;5026153;28;20026;-84
2023/08/22 09:56:26;;;;;;;7.30;6.20;;;;;;;36.28;25.88;99465.38;5010181;28;20022;-85
2023/08/22 09:58:52;;;;;;;10.68;5.22;;;;;;;36.37;26.53;99465.19;4994208;28;20030;-85
2023/08/22 10:01:19;;;;;;;10.32;5.55;;;;;;;36.43;25.44;99450.66;5001765;28;20116;-85
2023/08/22 10:03:47;;;;;;;8.43;6.38;;;;;;;36.51;25.59;99457.63;5003834;28;20022;-85
2023/08/22 10:06:14;;;;;;;11.32;5.82;;;;;;;36.48;24.73;99452.03;5001099;28;20028;-85
2023/08/22 10:08:45;;;;;;;9.73;5.70;;;;;;;36.90;24.68;99455.53;5014977;28;20017;-85
2023/08/22 10:11:17;;;;;;;8.50;6.38;;;;;;;36.88;24.80;99449.44;5010859;28;20518;-84
2023/08/22 10:13:43;;;;;;;10.05;5.05;;;;;;;36.77;25.66;99436.38;5008187;28;20509;-86
2023/08/22 10:16:09;;;;;;;9.85;5.78;;;;;;;37.08;25.69;99437.66;5006113;28;20025;-85
2023/08/22 10:18:35;;;;;;;8.95;5.78;;;;;;;37.22;25.41;99447.50;5011715;28;20036;-85
2023/08/22 10:21:03;;;;;;;10.35;5.45;;;;;;;37.30;24.58;99444.94;5011954;28;20025;-85
2023/08/22 10:23:53;;;;;;;13.13;6.63;;;;;;;36.56;24.19;99438.63;5021397;28;20512;-85
2023/08/22 10:26:25;;;;;;;8.38;5.57;;;;;;;36.84;25.13;99437.22;5005699;28;20551;-85
2023/08/22 10:29:13;;;;;;;13.90;6.15;;;;;;;37.26;24.77;99429.78;5014547;28;20022;-85
2023/08/22 10:32:00;;;;;;;12.63;6.03;;;;;;;37.44;23.99;99439.41;5017474;28;20085;-86
2023/08/22 10:34:26;;;;;;;11.40;6.30;;;;;;;37.44;24.29;99433.56;5019852;28;20051;-85
2023/08/22 10:37:05;;;;;;;9.95;5.75;;;;;;;37.51;24.66;99433.06;5039153;28;20025;-86
2023/08/22 10:39:37;;;;;;;12.80;6.60;;;;;;;37.33;24.16;99426.38;5010925;28;20597;-86
2023/08/22 10:42:04;;;;;;;9.98;6.45;;;;;;;37.36;23.15;99428.25;4985915;28;20057;-86
2023/08/22 10:44:30;;;;;;;11.75;7.18;;;;;;;37.30;23.89;99424.53;4994437;28;20065;-86
2023/08/22 10:47:18;;;;;;;14.45;6.82;;;;;;;36.98;23.75;99417.97;5011588;28;20025;-87
2023/08/22 10:49:47;;;;;;;9.80;6.50;;;;;;;37.24;24.69;99414.94;5014547;28;20407;-85
2023/08/22 10:52:13;;;;;;;;;;;;;;;37.47;24.02;99426.69;5030646;28;20472;-86
2023/08/22 10:54:57;;;;;;;13.13;6.40;;;;;;;37.48;24.08;99417.44;5024705;28;19951;-85
2023/08/22 10:57:24;;;;;;;11.52;5.82;;;;;;;37.53;23.86;99412.16;5028773;28;20029;-85
2023/08/22 11:00:18;;;;;;;7.75;6.03;;;;;;;37.49;24.00;99424.03;5010842;28;20030;-84
2023/08/22 11:02:44;;;;;;;15.07;7.47;;;;;;;37.73;23.51;99408.22;5027248;28;20086;-84
2023/08/22 11:05:12;;;;;;;8.38;6.57;;;;;;;37.88;23.04;99408.75;5012813;28;20484;-83
2023/08/22 11:07:44;;;;;;;18.58;6.05;;;;;;;37.74;23.45;99415.66;5017827;28;20022;-84
2023/08/22 11:10:18;;;;;;;7.35;6.65;;;;;;;37.83;23.58;99414.59;5001312;28;20029;-84
2023/08/22 11:12:46;;;;;;;10.70;6.57;;;;;;;37.79;23.84;99418.56;5008756;28;20025;-83
2023/08/22 11:15:16;;;;;;;20.13;6.65;;;;;;;37.81;23.59;99412.22;5028385;28;20458;-84
2023/08/22 11:17:43;;;;;;;8.70;5.68;;;;;;;37.85;23.69;99415.66;5014188;28;20021;-84
2023/08/22 11:20:12;;;;;;;9.38;6.22;;;;;;;37.97;23.17;99413.56;5014743;28;20021;-83
2023/08/22 11:22:40;;;;;;;16.05;7.07;;;;;;;37.82;23.21;99404.25;5011081;28;20022;-83